createdAt,value
2023-05-16T00:03:44.236Z,4.00
2023-05-16T00:08:45.788Z,3.85
2023-05-16T00:13:47.786Z,3.58
2023-05-16T00:18:49.798Z,3.83
2023-05-16T00:23:52.586Z,3.40
2023-05-16T00:28:54.192Z,3.78
2023-05-16T00:33:55.829Z,4.00
2023-05-16T00:38:58.918Z,4.28
2023-05-16T00:44:01.739Z,4.50
2023-05-16T00:49:04.036Z,4.18
2023-05-16T00:54:06.729Z,3.80
2023-05-16T00:59:08.288Z,4.10
2023-05-16T01:04:10.109Z,3.90
2023-05-16T01:09:12.791Z,3.47
2023-05-16T01:14:43.566Z,3.42
2023-05-16T01:19:57.041Z,4.30
2023-05-16T01:25:20.189Z,4.30
2023-05-16T01:30:21.973Z,4.35
2023-05-16T01:35:24.075Z,4.50
2023-05-16T01:40:39.551Z,4.32
2023-05-16T01:45:51.232Z,4.22
2023-05-16T01:50:56.625Z,4.40
2023-05-16T01:56:00.647Z,4.32
2023-05-16T02:01:04.347Z,4.70
2023-05-16T02:06:06.001Z,4.57
2023-05-16T02:11:07.616Z,4.68
2023-05-16T02:16:11.093Z,5.40
2023-05-16T02:21:12.608Z,4.72
2023-05-16T02:26:14.318Z,5.00
2023-05-16T02:31:28.979Z,5.05
2023-05-16T02:36:30.906Z,5.43
2023-05-16T02:41:33.238Z,5.07
2023-05-16T02:46:35.338Z,5.25
2023-05-16T02:51:38.729Z,5.15
2023-05-16T02:56:40.292Z,4.50
2023-05-16T03:01:41.925Z,4.68
2023-05-16T03:06:43.716Z,4.15
2023-05-16T03:11:45.781Z,4.60
2023-05-16T03:16:47.532Z,4.30
2023-05-16T03:21:49.225Z,5.07
2023-05-16T03:26:51.081Z,4.55
2023-05-16T03:31:56.250Z,4.28
2023-05-16T03:36:58.677Z,4.60
2023-05-16T03:42:00.388Z,4.60
2023-05-16T03:47:01.938Z,4.70
2023-05-16T03:52:05.217Z,4.43
2023-05-16T03:57:06.843Z,4.80
2023-05-16T04:02:09.651Z,4.22
2023-05-16T04:07:11.214Z,4.28
2023-05-16T04:12:12.708Z,4.85
2023-05-16T04:17:14.288Z,5.25
2023-05-16T04:22:16.032Z,4.07
2023-05-16T04:27:18.040Z,4.25
2023-05-16T04:32:19.865Z,3.90
2023-05-16T04:37:21.453Z,4.47
2023-05-16T04:42:24.118Z,4.00
2023-05-16T04:47:25.912Z,4.47
2023-05-16T04:52:27.457Z,4.70
2023-05-16T04:57:29.001Z,4.55
2023-05-16T05:02:30.503Z,4.82
2023-05-16T05:07:33.210Z,4.43
2023-05-16T05:12:35.843Z,4.90
2023-05-16T05:17:37.871Z,4.40
2023-05-16T05:22:39.572Z,4.82
2023-05-16T05:27:41.134Z,4.95
2023-05-16T05:32:42.676Z,5.03
2023-05-16T05:37:44.178Z,5.05
2023-05-16T05:42:47.268Z,5.47
2023-05-16T05:47:49.010Z,5.22
2023-05-16T05:52:50.651Z,5.45
2023-05-16T05:57:52.148Z,6.10
2023-05-16T06:02:53.749Z,6.15
2023-05-16T06:07:55.471Z,6.60
2023-05-16T06:12:56.950Z,6.35
2023-05-16T06:17:58.536Z,5.93
2023-05-16T06:23:00.091Z,6.93
2023-05-16T06:28:01.594Z,6.05
2023-05-16T06:33:03.198Z,6.47
2023-05-16T06:38:04.818Z,6.97
2023-05-16T06:43:06.450Z,7.18
2023-05-16T06:48:08.526Z,6.93
2023-05-16T06:53:12.064Z,5.93
2023-05-16T06:58:13.597Z,7.20
2023-05-16T07:03:15.246Z,5.97
2023-05-16T07:08:17.043Z,7.20
2023-05-16T07:13:18.635Z,5.70
2023-05-16T07:18:20.150Z,6.38
2023-05-16T07:23:22.242Z,6.68
2023-05-16T07:28:23.926Z,7.03
2023-05-16T07:33:25.752Z,6.65
2023-05-16T07:38:27.305Z,7.13
2023-05-16T07:43:30.270Z,6.78
2023-05-16T07:48:31.894Z,7.80
2023-05-16T07:53:33.497Z,6.95
2023-05-16T07:58:35.191Z,7.38
2023-05-16T08:03:37.264Z,6.40
2023-05-16T08:08:39.649Z,7.00
2023-05-16T08:13:41.166Z,6.22
2023-05-16T08:18:42.697Z,6.22
2023-05-16T08:23:44.239Z,6.93
2023-05-16T08:28:45.733Z,6.47
2023-05-16T08:33:47.230Z,6.28
2023-05-16T08:38:50.442Z,7.10
2023-05-16T08:43:52.651Z,6.32
2023-05-16T08:48:54.357Z,7.10
2023-05-16T08:54:11.390Z,6.10
2023-05-16T08:59:13.114Z,6.00
2023-05-16T09:04:16.095Z,6.15
2023-05-16T09:09:17.768Z,5.85
2023-05-16T09:14:19.357Z,6.25
2023-05-16T09:19:23.142Z,7.22
2023-05-16T09:24:26.340Z,6.45
2023-05-16T09:29:27.856Z,6.60
2023-05-16T09:34:29.368Z,5.70
2023-05-16T09:39:31.001Z,5.38
2023-05-16T09:44:32.776Z,5.90
2023-05-16T09:49:37.622Z,5.80
2023-05-16T09:54:39.553Z,5.60
2023-05-16T09:59:41.094Z,5.47
2023-05-16T10:04:42.662Z,5.30
2023-05-16T10:09:44.977Z,5.50
2023-05-16T10:14:49.943Z,6.80
2023-05-16T10:19:53.976Z,5.22
2023-05-16T10:25:16.054Z,5.30
2023-05-16T10:30:18.145Z,5.22
2023-05-16T10:35:20.780Z,5.70
2023-05-16T10:40:22.805Z,6.35
2023-05-16T10:45:24.586Z,5.30
2023-05-16T10:50:44.285Z,6.25
2023-05-16T10:56:10.047Z,5.53
2023-05-16T11:01:15.866Z,6.20
2023-05-16T11:06:23.577Z,5.25
2023-05-16T11:11:55.460Z,5.10
2023-05-16T11:17:03.575Z,4.85
2023-05-16T11:22:08.524Z,5.20
2023-05-16T11:27:14.139Z,4.80
2023-05-16T11:32:20.011Z,4.35
2023-05-16T11:37:21.698Z,4.20
2023-05-16T11:42:23.379Z,4.32
2023-05-16T11:47:24.982Z,4.65
2023-05-16T11:52:27.938Z,4.05
2023-05-16T11:57:29.495Z,3.95
2023-05-16T12:02:32.505Z,3.90
2023-05-16T12:07:34.039Z,4.22
2023-05-16T12:12:36.917Z,4.10
2023-05-16T12:17:40.449Z,3.80
2023-05-16T12:22:45.621Z,4.38
2023-05-16T12:27:47.194Z,4.85
2023-05-16T12:32:59.209Z,4.57
2023-05-16T12:38:05.568Z,5.28
2023-05-16T12:43:19.180Z,5.22
2023-05-16T12:48:21.603Z,5.65
2023-05-16T12:53:23.139Z,6.20
2023-05-16T12:58:24.799Z,5.75
2023-05-16T13:03:27.593Z,6.72
2023-05-16T13:08:29.631Z,6.63
2023-05-16T13:18:36.975Z,5.70
2023-05-16T13:23:38.559Z,6.25
2023-05-16T13:28:40.276Z,5.97
2023-05-16T13:33:41.793Z,5.32
2023-05-16T13:38:43.340Z,5.72
2023-05-16T13:43:44.931Z,5.53
2023-05-16T13:48:46.469Z,5.35
2023-05-16T13:53:48.090Z,5.97
2023-05-16T13:59:02.129Z,4.93
2023-05-16T14:04:05.814Z,5.03
2023-05-16T14:09:08.247Z,4.80
2023-05-16T14:14:09.812Z,5.10
2023-05-16T14:19:12.793Z,4.38
2023-05-16T14:24:14.343Z,4.40
2023-05-16T14:29:16.005Z,4.55
2023-05-16T14:34:17.828Z,4.38
2023-05-16T14:39:19.478Z,4.43
2023-05-16T14:44:24.623Z,4.22
2023-05-16T14:49:26.183Z,5.22
2023-05-16T14:54:27.710Z,5.80
2023-05-16T14:59:29.595Z,6.18
2023-05-16T15:04:31.160Z,6.90
2023-05-16T15:09:32.808Z,6.15
2023-05-16T15:14:34.324Z,6.65
2023-05-16T15:19:35.846Z,6.57
2023-05-16T15:24:37.457Z,6.35
2023-05-16T15:29:39.058Z,5.72
2023-05-16T15:34:40.672Z,5.68
2023-05-16T15:39:42.412Z,5.40
2023-05-16T15:44:43.967Z,4.85
2023-05-16T15:49:45.599Z,5.50
2023-05-16T15:54:47.123Z,4.80
2023-05-16T15:59:48.659Z,3.90
2023-05-16T16:04:51.708Z,3.47
2023-05-16T16:09:53.229Z,2.92
2023-05-16T16:14:55.008Z,2.95
2023-05-16T16:19:56.697Z,2.92
2023-05-16T16:24:58.314Z,3.47
2023-05-16T16:29:59.859Z,3.15
2023-05-16T16:35:05.387Z,3.75
2023-05-16T16:40:10.393Z,3.67
2023-05-16T16:45:12.063Z,3.13
2023-05-16T16:50:13.712Z,2.80
2023-05-16T16:55:15.503Z,3.00
2023-05-16T17:00:18.503Z,3.65
2023-05-16T17:05:20.055Z,3.05
2023-05-16T17:10:21.703Z,3.30
2023-05-16T17:15:23.296Z,3.72
2023-05-16T17:20:25.154Z,3.05
2023-05-16T17:25:28.507Z,3.58
2023-05-16T17:30:31.294Z,3.90
2023-05-16T17:35:35.613Z,3.20
2023-05-16T17:40:37.793Z,3.15
2023-05-16T17:45:39.762Z,3.33
2023-05-16T17:50:44.857Z,2.70
2023-05-16T17:55:46.959Z,2.83
2023-05-16T18:00:49.613Z,2.15
2023-05-16T18:05:51.796Z,2.70
2023-05-16T18:10:53.590Z,2.03
2023-05-16T18:15:55.323Z,2.28
2023-05-16T18:20:58.147Z,1.98
2023-05-16T18:25:59.952Z,2.05
2023-05-16T18:31:05.908Z,2.10
2023-05-16T18:36:08.399Z,1.90
2023-05-16T18:41:10.572Z,1.80
2023-05-16T18:46:12.320Z,1.60
2023-05-16T18:51:14.140Z,1.25
2023-05-16T18:56:16.298Z,1.58
2023-05-16T19:01:22.158Z,1.00
2023-05-16T19:06:23.989Z,1.20
2023-05-16T19:11:26.613Z,1.45
2023-05-16T19:16:28.300Z,1.15
2023-05-16T19:21:29.973Z,1.50
2023-05-16T19:26:31.529Z,1.27
2023-05-16T19:31:33.165Z,1.23
2023-05-16T19:36:34.891Z,1.17
2023-05-16T19:41:36.701Z,1.23
2023-05-16T19:46:39.163Z,1.60
2023-05-16T19:51:42.147Z,1.90
2023-05-16T19:56:44.040Z,1.50
2023-05-16T20:01:45.882Z,1.60
2023-05-16T20:06:47.556Z,2.08
2023-05-16T20:11:49.670Z,1.60
2023-05-16T20:16:51.480Z,1.40
2023-05-16T20:21:53.118Z,1.80
2023-05-16T20:26:54.725Z,1.58
2023-05-16T20:31:56.502Z,1.90
2023-05-16T20:36:58.555Z,1.80
2023-05-16T20:42:00.258Z,1.40
2023-05-16T20:47:01.887Z,1.85
2023-05-16T20:52:04.045Z,1.77
2023-05-16T20:57:05.911Z,1.58
2023-05-16T21:02:10.019Z,1.85
2023-05-16T21:07:11.871Z,1.63
2023-05-16T21:12:14.340Z,1.70
2023-05-16T21:17:15.893Z,1.52
2023-05-16T21:22:17.439Z,1.50
2023-05-16T21:27:19.008Z,1.27
2023-05-16T21:32:20.613Z,1.70
2023-05-16T21:37:22.202Z,1.80
2023-05-16T21:42:23.772Z,1.83
2023-05-16T21:47:26.205Z,1.48
2023-05-16T21:52:27.906Z,1.88
2023-05-16T21:57:29.475Z,1.30
2023-05-16T22:02:31.072Z,1.95
2023-05-16T22:07:32.974Z,1.38
2023-05-16T22:12:34.569Z,1.40
2023-05-16T22:17:36.487Z,1.88
2023-05-16T22:22:38.130Z,1.35
2023-05-16T22:27:39.680Z,1.58
2023-05-16T22:32:41.401Z,1.92
2023-05-16T22:37:43.000Z,1.77
2023-05-16T22:42:44.527Z,1.23
2023-05-16T22:47:46.124Z,1.58
2023-05-16T22:52:47.643Z,1.27
2023-05-16T22:57:49.173Z,1.50
2023-05-16T23:02:50.820Z,1.95
2023-05-16T23:07:52.406Z,2.03
2023-05-16T23:12:53.912Z,1.65
2023-05-16T23:17:56.194Z,1.73
2023-05-16T23:22:57.826Z,1.67
2023-05-16T23:27:59.399Z,1.40
2023-05-16T23:33:01.105Z,1.42
2023-05-16T23:38:02.694Z,2.28
2023-05-16T23:43:04.277Z,1.77
2023-05-16T23:48:06.180Z,1.85
2023-05-16T23:53:07.742Z,2.17
2023-05-16T23:58:09.271Z,1.73
